sensor_id;sensor_type;location;lat;lon;timestamp;temperature;humidity
70170;DHT22;57543;45.442;9.212;2024-02-04T00:02:32;12.62;72.20
70170;DHT22;57543;45.442;9.212;2024-02-04T00:05:39;12.73;72.04
70170;DHT22;57543;45.442;9.212;2024-02-04T00:08:42;12.76;71.82
70170;DHT22;57543;45.442;9.212;2024-02-04T00:11:45;12.64;72.08
70170;DHT22;57543;45.442;9.212;2024-02-04T00:14:49;12.55;72.68
70170;DHT22;57543;45.442;9.212;2024-02-04T00:17:53;12.44;72.91
70170;DHT22;57543;45.442;9.212;2024-02-04T00:20:57;12.59;72.72
70170;DHT22;57543;45.442;9.212;2024-02-04T00:24:00;12.80;72.22
70170;DHT22;57543;45.442;9.212;2024-02-04T00:27:04;12.84;71.96
70170;DHT22;57543;45.442;9.212;2024-02-04T00:30:08;12.79;71.74
70170;DHT22;57543;45.442;9.212;2024-02-04T00:33:11;12.70;71.80
70170;DHT22;57543;45.442;9.212;2024-02-04T00:36:15;12.77;71.99
70170;DHT22;57543;45.442;9.212;2024-02-04T00:39:20;12.83;71.72
70170;DHT22;57543;45.442;9.212;2024-02-04T00:42:23;12.84;71.52
70170;DHT22;57543;45.442;9.212;2024-02-04T00:45:27;12.76;71.53
70170;DHT22;57543;45.442;9.212;2024-02-04T00:48:31;12.59;72.04
70170;DHT22;57543;45.442;9.212;2024-02-04T00:51:34;12.69;72.09
70170;DHT22;57543;45.442;9.212;2024-02-04T00:54:39;12.75;71.82
70170;DHT22;57543;45.442;9.212;2024-02-04T00:57:42;12.81;71.73
70170;DHT22;57543;45.442;9.212;2024-02-04T01:00:46;12.91;71.44
70170;DHT22;57543;45.442;9.212;2024-02-04T01:03:50;12.94;71.17
70170;DHT22;57543;45.442;9.212;2024-02-04T01:06:54;12.91;71.13
70170;DHT22;57543;45.442;9.212;2024-02-04T01:09:57;12.73;71.65
70170;DHT22;57543;45.442;9.212;2024-02-04T01:13:01;12.76;71.49
70170;DHT22;57543;45.442;9.212;2024-02-04T01:16:04;12.66;71.72
70170;DHT22;57543;45.442;9.212;2024-02-04T01:19:11;12.64;71.69
70170;DHT22;57543;45.442;9.212;2024-02-04T01:22:14;12.67;71.84
70170;DHT22;57543;45.442;9.212;2024-02-04T01:25:17;12.64;71.76
70170;DHT22;57543;45.442;9.212;2024-02-04T01:28:21;12.69;71.54
70170;DHT22;57543;45.442;9.212;2024-02-04T01:31:25;12.66;71.60
70170;DHT22;57543;45.442;9.212;2024-02-04T01:34:29;12.55;71.48
70170;DHT22;57543;45.442;9.212;2024-02-04T01:37:32;12.53;72.05
70170;DHT22;57543;45.442;9.212;2024-02-04T01:40:36;12.42;72.24
70170;DHT22;57543;45.442;9.212;2024-02-04T01:43:40;12.28;72.81
70170;DHT22;57543;45.442;9.212;2024-02-04T01:46:44;12.32;72.56
70170;DHT22;57543;45.442;9.212;2024-02-04T01:49:48;12.34;72.55
70170;DHT22;57543;45.442;9.212;2024-02-04T01:52:52;12.27;72.54
70170;DHT22;57543;45.442;9.212;2024-02-04T01:55:56;12.42;72.27
70170;DHT22;57543;45.442;9.212;2024-02-04T01:59:00;12.50;72.00
70170;DHT22;57543;45.442;9.212;2024-02-04T02:02:03;12.64;71.80
70170;DHT22;57543;45.442;9.212;2024-02-04T02:05:08;12.63;71.61
70170;DHT22;57543;45.442;9.212;2024-02-04T02:08:12;12.69;71.52
70170;DHT22;57543;45.442;9.212;2024-02-04T02:11:27;12.67;71.56
70170;DHT22;57543;45.442;9.212;2024-02-04T02:14:39;12.48;72.11
70170;DHT22;57543;45.442;9.212;2024-02-04T02:24:35;12.10;73.37
70170;DHT22;57543;45.442;9.212;2024-02-04T02:27:49;12.13;73.37
70170;DHT22;57543;45.442;9.212;2024-02-04T02:30:56;12.24;73.13
70170;DHT22;57543;45.442;9.212;2024-02-04T02:33:59;12.39;72.71
70170;DHT22;57543;45.442;9.212;2024-02-04T02:37:27;12.52;72.34
70170;DHT22;57543;45.442;9.212;2024-02-04T02:40:58;12.55;72.09
70170;DHT22;57543;45.442;9.212;2024-02-04T02:44:04;12.64;71.89
70170;DHT22;57543;45.442;9.212;2024-02-04T02:47:09;12.60;71.84
70170;DHT22;57543;45.442;9.212;2024-02-04T02:50:14;12.56;71.97
70170;DHT22;57543;45.442;9.212;2024-02-04T02:53:18;12.60;71.86
70170;DHT22;57543;45.442;9.212;2024-02-04T02:56:22;12.52;71.75
70170;DHT22;57543;45.442;9.212;2024-02-04T02:59:26;12.01;72.38
70170;DHT22;57543;45.442;9.212;2024-02-04T03:02:30;12.01;72.67
70170;DHT22;57543;45.442;9.212;2024-02-04T03:05:33;11.95;72.34
70170;DHT22;57543;45.442;9.212;2024-02-04T03:08:37;11.94;72.57
70170;DHT22;57543;45.442;9.212;2024-02-04T03:11:40;11.94;71.94
70170;DHT22;57543;45.442;9.212;2024-02-04T03:14:44;11.86;72.33
70170;DHT22;57543;45.442;9.212;2024-02-04T03:17:48;11.90;72.43
70170;DHT22;57543;45.442;9.212;2024-02-04T03:20:53;11.74;72.62
70170;DHT22;57543;45.442;9.212;2024-02-04T03:23:56;11.65;73.04
70170;DHT22;57543;45.442;9.212;2024-02-04T03:26:59;11.49;73.41
70170;DHT22;57543;45.442;9.212;2024-02-04T03:30:04;11.48;73.72
70170;DHT22;57543;45.442;9.212;2024-02-04T03:33:08;11.42;73.07
70170;DHT22;57543;45.442;9.212;2024-02-04T03:36:12;11.14;74.18
70170;DHT22;57543;45.442;9.212;2024-02-04T03:39:21;11.00;74.39
70170;DHT22;57543;45.442;9.212;2024-02-04T03:42:25;10.84;74.78
70170;DHT22;57543;45.442;9.212;2024-02-04T03:45:31;10.86;75.24
70170;DHT22;57543;45.442;9.212;2024-02-04T03:48:35;10.79;75.22
70170;DHT22;57543;45.442;9.212;2024-02-04T03:51:43;10.58;76.11
70170;DHT22;57543;45.442;9.212;2024-02-04T03:54:49;10.55;75.79
70170;DHT22;57543;45.442;9.212;2024-02-04T03:57:54;10.50;76.06
70170;DHT22;57543;45.442;9.212;2024-02-04T04:01:00;10.53;76.07
70170;DHT22;57543;45.442;9.212;2024-02-04T04:04:04;10.60;76.00
70170;DHT22;57543;45.442;9.212;2024-02-04T04:07:08;10.46;75.55
70170;DHT22;57543;45.442;9.212;2024-02-04T04:10:12;10.45;75.68
70170;DHT22;57543;45.442;9.212;2024-02-04T04:13:18;10.39;76.07
70170;DHT22;57543;45.442;9.212;2024-02-04T04:16:23;10.35;76.49
70170;DHT22;57543;45.442;9.212;2024-02-04T04:19:26;10.37;76.38
70170;DHT22;57543;45.442;9.212;2024-02-04T04:22:38;10.31;75.81
70170;DHT22;57543;45.442;9.212;2024-02-04T04:25:42;10.30;75.94
70170;DHT22;57543;45.442;9.212;2024-02-04T04:28:48;10.34;76.02
70170;DHT22;57543;45.442;9.212;2024-02-04T04:31:51;10.38;76.10
70170;DHT22;57543;45.442;9.212;2024-02-04T04:34:55;10.37;76.20
70170;DHT22;57543;45.442;9.212;2024-02-04T04:37:59;10.32;76.40
70170;DHT22;57543;45.442;9.212;2024-02-04T04:41:05;10.44;76.45
70170;DHT22;57543;45.442;9.212;2024-02-04T04:44:09;10.31;76.58
70170;DHT22;57543;45.442;9.212;2024-02-04T04:47:15;10.21;76.35
70170;DHT22;57543;45.442;9.212;2024-02-04T04:50:19;10.27;76.10
70170;DHT22;57543;45.442;9.212;2024-02-04T04:53:22;10.25;75.72
70170;DHT22;57543;45.442;9.212;2024-02-04T04:56:26;10.08;76.95
70170;DHT22;57543;45.442;9.212;2024-02-04T04:59:29;10.25;76.48
70170;DHT22;57543;45.442;9.212;2024-02-04T05:02:33;10.45;75.88
70170;DHT22;57543;45.442;9.212;2024-02-04T05:05:42;10.37;75.46
70170;DHT22;57543;45.442;9.212;2024-02-04T05:08:45;10.28;75.46
70170;DHT22;57543;45.442;9.212;2024-02-04T05:11:52;10.22;75.42
70170;DHT22;57543;45.442;9.212;2024-02-04T05:14:55;10.01;75.89
70170;DHT22;57543;45.442;9.212;2024-02-04T05:18:04;10.00;76.21
70170;DHT22;57543;45.442;9.212;2024-02-04T05:21:07;10.03;76.13
70170;DHT22;57543;45.442;9.212;2024-02-04T05:24:16;9.94;76.28
70170;DHT22;57543;45.442;9.212;2024-02-04T05:27:19;9.73;77.03
70170;DHT22;57543;45.442;9.212;2024-02-04T05:30:25;9.65;77.40
70170;DHT22;57543;45.442;9.212;2024-02-04T05:33:30;9.85;77.24
70170;DHT22;57543;45.442;9.212;2024-02-04T05:36:33;9.89;76.65
70170;DHT22;57543;45.442;9.212;2024-02-04T05:39:36;9.69;76.65
70170;DHT22;57543;45.442;9.212;2024-02-04T05:42:40;9.72;77.05
70170;DHT22;57543;45.442;9.212;2024-02-04T05:45:43;9.77;77.12
70170;DHT22;57543;45.442;9.212;2024-02-04T05:48:47;9.75;76.99
70170;DHT22;57543;45.442;9.212;2024-02-04T05:51:54;9.60;76.49
70170;DHT22;57543;45.442;9.212;2024-02-04T05:54:58;9.56;77.02
70170;DHT22;57543;45.442;9.212;2024-02-04T05:58:04;9.59;77.55
70170;DHT22;57543;45.442;9.212;2024-02-04T06:01:10;9.58;77.61
70170;DHT22;57543;45.442;9.212;2024-02-04T06:04:14;9.66;77.45
70170;DHT22;57543;45.442;9.212;2024-02-04T06:07:17;9.62;76.98
70170;DHT22;57543;45.442;9.212;2024-02-04T06:10:21;9.53;77.01
70170;DHT22;57543;45.442;9.212;2024-02-04T06:13:34;9.56;77.28
70170;DHT22;57543;45.442;9.212;2024-02-04T06:16:44;9.56;77.24
70170;DHT22;57543;45.442;9.212;2024-02-04T06:19:53;9.52;76.82
70170;DHT22;57543;45.442;9.212;2024-02-04T06:22:59;9.45;76.74
70170;DHT22;57543;45.442;9.212;2024-02-04T06:26:04;9.49;77.05
70170;DHT22;57543;45.442;9.212;2024-02-04T06:29:14;9.39;77.09
70170;DHT22;57543;45.442;9.212;2024-02-04T06:32:18;9.34;76.88
70170;DHT22;57543;45.442;9.212;2024-02-04T06:35:27;9.31;77.00
70170;DHT22;57543;45.442;9.212;2024-02-04T06:38:30;9.27;77.20
70170;DHT22;57543;45.442;9.212;2024-02-04T06:41:34;9.28;77.04
70170;DHT22;57543;45.442;9.212;2024-02-04T06:44:37;9.31;76.67
70170;DHT22;57543;45.442;9.212;2024-02-04T06:47:44;9.28;76.60
70170;DHT22;57543;45.442;9.212;2024-02-04T06:50:48;9.28;76.75
70170;DHT22;57543;45.442;9.212;2024-02-04T06:53:54;9.38;76.93
70170;DHT22;57543;45.442;9.212;2024-02-04T06:57:02;9.38;77.04
70170;DHT22;57543;45.442;9.212;2024-02-04T07:00:06;9.34;77.32
70170;DHT22;57543;45.442;9.212;2024-02-04T07:03:12;9.34;77.23
70170;DHT22;57543;45.442;9.212;2024-02-04T07:06:17;9.43;77.00
70170;DHT22;57543;45.442;9.212;2024-02-04T07:09:22;9.53;76.77
70170;DHT22;57543;45.442;9.212;2024-02-04T07:12:28;9.60;76.39
70170;DHT22;57543;45.442;9.212;2024-02-04T07:15:31;9.65;75.98
70170;DHT22;57543;45.442;9.212;2024-02-04T07:18:35;9.66;76.21
70170;DHT22;57543;45.442;9.212;2024-02-04T07:21:43;9.79;75.80
70170;DHT22;57543;45.442;9.212;2024-02-04T07:24:48;9.72;75.56
70170;DHT22;57543;45.442;9.212;2024-02-04T07:27:54;9.77;75.90
70170;DHT22;57543;45.442;9.212;2024-02-04T07:31:00;9.98;75.41
70170;DHT22;57543;45.442;9.212;2024-02-04T07:34:08;10.14;74.78
70170;DHT22;57543;45.442;9.212;2024-02-04T07:37:14;10.32;74.17
70170;DHT22;57543;45.442;9.212;2024-02-04T07:40:24;10.46;73.48
70170;DHT22;57543;45.442;9.212;2024-02-04T07:43:28;10.41;73.49
70170;DHT22;57543;45.442;9.212;2024-02-04T07:46:33;10.24;74.34
70170;DHT22;57543;45.442;9.212;2024-02-04T07:49:38;11.11;72.85
70170;DHT22;57543;45.442;9.212;2024-02-04T07:52:42;12.89;68.09
70170;DHT22;57543;45.442;9.212;2024-02-04T07:55:49;14.90;61.84
70170;DHT22;57543;45.442;9.212;2024-02-04T07:58:55;16.62;55.99
70170;DHT22;57543;45.442;9.212;2024-02-04T08:02:03;17.52;53.48
70170;DHT22;57543;45.442;9.212;2024-02-04T08:05:07;18.48;50.86
70170;DHT22;57543;45.442;9.212;2024-02-04T08:08:13;19.74;47.00
70170;DHT22;57543;45.442;9.212;2024-02-04T08:11:20;20.18;46.02
70170;DHT22;57543;45.442;9.212;2024-02-04T08:14:25;20.43;45.08
70170;DHT22;57543;45.442;9.212;2024-02-04T08:17:31;21.66;43.08
70170;DHT22;57543;45.442;9.212;2024-02-04T08:20:40;21.87;42.68
70170;DHT22;57543;45.442;9.212;2024-02-04T08:23:45;23.93;39.59
70170;DHT22;57543;45.442;9.212;2024-02-04T08:26:51;25.08;37.42
70170;DHT22;57543;45.442;9.212;2024-02-04T08:30:03;26.35;36.03
70170;DHT22;57543;45.442;9.212;2024-02-04T08:33:07;26.84;34.67
70170;DHT22;57543;45.442;9.212;2024-02-04T08:36:19;27.39;34.24
70170;DHT22;57543;45.442;9.212;2024-02-04T08:39:30;27.55;33.50
70170;DHT22;57543;45.442;9.212;2024-02-04T08:42:35;26.80;34.26
70170;DHT22;57543;45.442;9.212;2024-02-04T08:45:52;26.62;34.57
70170;DHT22;57543;45.442;9.212;2024-02-04T08:49:03;27.24;34.19
70170;DHT22;57543;45.442;9.212;2024-02-04T08:52:06;27.25;34.02
70170;DHT22;57543;45.442;9.212;2024-02-04T08:55:10;27.67;33.51
70170;DHT22;57543;45.442;9.212;2024-02-04T08:58:14;27.53;33.72
70170;DHT22;57543;45.442;9.212;2024-02-04T09:01:17;28.56;32.86
70170;DHT22;57543;45.442;9.212;2024-02-04T09:04:21;28.97;32.64
70170;DHT22;57543;45.442;9.212;2024-02-04T09:07:24;29.00;32.30
70170;DHT22;57543;45.442;9.212;2024-02-04T09:10:28;28.17;33.26
70170;DHT22;57543;45.442;9.212;2024-02-04T09:13:32;25.94;36.11
70170;DHT22;57543;45.442;9.212;2024-02-04T09:16:39;24.00;39.13
70170;DHT22;57543;45.442;9.212;2024-02-04T09:19:43;22.35;41.98
70170;DHT22;57543;45.442;9.212;2024-02-04T09:22:46;20.43;46.08
70170;DHT22;57543;45.442;9.212;2024-02-04T09:25:53;17.87;50.87
70170;DHT22;57543;45.442;9.212;2024-02-04T09:28:56;16.72;53.59
70170;DHT22;57543;45.442;9.212;2024-02-04T09:31:59;16.63;54.66
70170;DHT22;57543;45.442;9.212;2024-02-04T09:35:06;16.55;54.06
70170;DHT22;57543;45.442;9.212;2024-02-04T09:38:09;16.39;54.67
70170;DHT22;57543;45.442;9.212;2024-02-04T09:41:13;16.12;55.10
70170;DHT22;57543;45.442;9.212;2024-02-04T09:44:17;15.93;55.98
70170;DHT22;57543;45.442;9.212;2024-02-04T09:47:21;15.90;56.12
70170;DHT22;57543;45.442;9.212;2024-02-04T09:50:24;15.90;56.35
70170;DHT22;57543;45.442;9.212;2024-02-04T09:53:33;16.18;56.08
70170;DHT22;57543;45.442;9.212;2024-02-04T09:56:41;16.11;55.65
70170;DHT22;57543;45.442;9.212;2024-02-04T09:59:48;15.96;56.72
70170;DHT22;57543;45.442;9.212;2024-02-04T10:02:53;16.28;56.28
70170;DHT22;57543;45.442;9.212;2024-02-04T10:05:57;16.53;55.90
70170;DHT22;57543;45.442;9.212;2024-02-04T10:09:01;16.84;55.42
70170;DHT22;57543;45.442;9.212;2024-02-04T10:12:07;17.24;55.09
70170;DHT22;57543;45.442;9.212;2024-02-04T10:15:12;17.24;53.82
70170;DHT22;57543;45.442;9.212;2024-02-04T10:18:17;16.91;54.46
70170;DHT22;57543;45.442;9.212;2024-02-04T10:21:21;16.84;54.78
70170;DHT22;57543;45.442;9.212;2024-02-04T10:24:27;16.74;55.56
70170;DHT22;57543;45.442;9.212;2024-02-04T10:27:31;17.11;54.83
70170;DHT22;57543;45.442;9.212;2024-02-04T10:30:38;17.36;54.79
70170;DHT22;57543;45.442;9.212;2024-02-04T10:33:42;17.14;54.62
70170;DHT22;57543;45.442;9.212;2024-02-04T10:36:46;17.21;54.38
70170;DHT22;57543;45.442;9.212;2024-02-04T10:39:50;17.24;54.85
70170;DHT22;57543;45.442;9.212;2024-02-04T10:43:03;16.60;56.35
70170;DHT22;57543;45.442;9.212;2024-02-04T10:46:19;17.06;55.84
70170;DHT22;57543;45.442;9.212;2024-02-04T10:49:25;17.01;55.03
70170;DHT22;57543;45.442;9.212;2024-02-04T10:52:35;17.14;55.26
70170;DHT22;57543;45.442;9.212;2024-02-04T10:55:41;17.67;54.16
70170;DHT22;57543;45.442;9.212;2024-02-04T10:58:47;17.66;54.32
70170;DHT22;57543;45.442;9.212;2024-02-04T11:01:53;18.00;54.06
70170;DHT22;57543;45.442;9.212;2024-02-04T11:04:57;18.41;53.20
70170;DHT22;57543;45.442;9.212;2024-02-04T11:08:09;18.76;52.46
70170;DHT22;57543;45.442;9.212;2024-02-04T11:11:14;19.10;51.94
70170;DHT22;57543;45.442;9.212;2024-02-04T11:14:20;18.84;52.45
70170;DHT22;57543;45.442;9.212;2024-02-04T11:17:49;19.28;51.71
70170;DHT22;57543;45.442;9.212;2024-02-04T11:21:08;18.81;53.45
70170;DHT22;57543;45.442;9.212;2024-02-04T11:24:35;19.70;51.01
70170;DHT22;57543;45.442;9.212;2024-02-04T11:27:46;20.33;49.38
70170;DHT22;57543;45.442;9.212;2024-02-04T11:30:51;20.87;48.39
70170;DHT22;57543;45.442;9.212;2024-02-04T11:33:56;22.10;45.70
70170;DHT22;57543;45.442;9.212;2024-02-04T11:37:00;23.15;44.11
70170;DHT22;57543;45.442;9.212;2024-02-04T11:40:06;24.76;40.64
70170;DHT22;57543;45.442;9.212;2024-02-04T11:43:16;26.01;38.19
70170;DHT22;57543;45.442;9.212;2024-02-04T11:46:27;27.23;36.48
70170;DHT22;57543;45.442;9.212;2024-02-04T11:49:34;28.60;34.77
70170;DHT22;57543;45.442;9.212;2024-02-04T11:52:39;28.83;33.94
70170;DHT22;57543;45.442;9.212;2024-02-04T11:55:45;28.60;34.21
70170;DHT22;57543;45.442;9.212;2024-02-04T11:58:49;27.74;35.15
70170;DHT22;57543;45.442;9.212;2024-02-04T12:01:56;27.03;36.40
70170;DHT22;57543;45.442;9.212;2024-02-04T12:05:01;26.69;37.13
70170;DHT22;57543;45.442;9.212;2024-02-04T12:08:09;26.31;37.68
70170;DHT22;57543;45.442;9.212;2024-02-04T12:11:18;25.43;38.85
70170;DHT22;57543;45.442;9.212;2024-02-04T12:14:22;24.52;40.71
70170;DHT22;57543;45.442;9.212;2024-02-04T12:17:26;23.26;42.57
70170;DHT22;57543;45.442;9.212;2024-02-04T12:20:29;22.25;45.16
70170;DHT22;57543;45.442;9.212;2024-02-04T12:23:33;21.55;46.33
70170;DHT22;57543;45.442;9.212;2024-02-04T12:26:37;21.14;47.25
70170;DHT22;57543;45.442;9.212;2024-02-04T12:29:41;20.79;48.38
70170;DHT22;57543;45.442;9.212;2024-02-04T12:32:45;20.45;48.98
70170;DHT22;57543;45.442;9.212;2024-02-04T12:35:58;19.93;50.25
70170;DHT22;57543;45.442;9.212;2024-02-04T12:39:04;19.52;51.97
70170;DHT22;57543;45.442;9.212;2024-02-04T12:42:08;19.36;52.11
70170;DHT22;57543;45.442;9.212;2024-02-04T12:45:14;19.22;52.63
70170;DHT22;57543;45.442;9.212;2024-02-04T12:48:18;19.18;52.83
70170;DHT22;57543;45.442;9.212;2024-02-04T12:51:27;19.21;53.04
70170;DHT22;57543;45.442;9.212;2024-02-04T12:54:40;19.31;52.63
70170;DHT22;57543;45.442;9.212;2024-02-04T12:57:45;19.38;52.47
70170;DHT22;57543;45.442;9.212;2024-02-04T13:01:01;19.43;52.42
70170;DHT22;57543;45.442;9.212;2024-02-04T13:04:06;19.31;52.93
70170;DHT22;57543;45.442;9.212;2024-02-04T13:07:13;19.26;52.90
70170;DHT22;57543;45.442;9.212;2024-02-04T13:10:18;19.22;52.99
70170;DHT22;57543;45.442;9.212;2024-02-04T13:13:21;19.22;52.66
70170;DHT22;57543;45.442;9.212;2024-02-04T13:16:25;19.15;52.57
70170;DHT22;57543;45.442;9.212;2024-02-04T13:19:36;19.14;52.89
70170;DHT22;57543;45.442;9.212;2024-02-04T13:22:40;19.17;52.55
70170;DHT22;57543;45.442;9.212;2024-02-04T13:25:43;19.14;52.28
70170;DHT22;57543;45.442;9.212;2024-02-04T13:28:49;18.98;52.69
70170;DHT22;57543;45.442;9.212;2024-02-04T13:31:53;18.94;52.64
70170;DHT22;57543;45.442;9.212;2024-02-04T13:34:56;18.98;52.33
70170;DHT22;57543;45.442;9.212;2024-02-04T13:38:00;18.84;52.82
70170;DHT22;57543;45.442;9.212;2024-02-04T13:41:04;18.42;53.68
70170;DHT22;57543;45.442;9.212;2024-02-04T13:44:09;18.35;54.06
70170;DHT22;57543;45.442;9.212;2024-02-04T13:47:13;18.36;54.11
70170;DHT22;57543;45.442;9.212;2024-02-04T13:50:16;18.35;53.89
70170;DHT22;57543;45.442;9.212;2024-02-04T13:53:25;18.32;53.79
70170;DHT22;57543;45.442;9.212;2024-02-04T13:56:29;18.00;54.82
70170;DHT22;57543;45.442;9.212;2024-02-04T13:59:33;17.90;55.26
70170;DHT22;57543;45.442;9.212;2024-02-04T14:02:37;17.94;55.13
70170;DHT22;57543;45.442;9.212;2024-02-04T14:05:45;17.87;55.14
70170;DHT22;57543;45.442;9.212;2024-02-04T14:08:49;17.80;55.08
70170;DHT22;57543;45.442;9.212;2024-02-04T14:11:53;17.77;55.03
70170;DHT22;57543;45.442;9.212;2024-02-04T14:15:00;17.66;55.49
70170;DHT22;57543;45.442;9.212;2024-02-04T14:18:06;17.61;55.72
70170;DHT22;57543;45.442;9.212;2024-02-04T14:21:09;17.39;56.78
70170;DHT22;57543;45.442;9.212;2024-02-04T14:24:13;17.36;56.63
70170;DHT22;57543;45.442;9.212;2024-02-04T14:27:17;17.12;57.43
70170;DHT22;57543;45.442;9.212;2024-02-04T14:30:21;16.90;58.39
70170;DHT22;57543;45.442;9.212;2024-02-04T14:33:24;16.88;58.46
70170;DHT22;57543;45.442;9.212;2024-02-04T14:36:28;16.83;58.84
70170;DHT22;57543;45.442;9.212;2024-02-04T14:39:35;16.67;59.47
70170;DHT22;57543;45.442;9.212;2024-02-04T14:42:41;16.41;59.94
70170;DHT22;57543;45.442;9.212;2024-02-04T14:45:45;16.46;59.97
70170;DHT22;57543;45.442;9.212;2024-02-04T14:48:53;16.48;59.91
70170;DHT22;57543;45.442;9.212;2024-02-04T14:51:57;16.52;60.00
70170;DHT22;57543;45.442;9.212;2024-02-04T14:55:00;16.49;60.32
70170;DHT22;57543;45.442;9.212;2024-02-04T14:58:04;16.03;61.42
70170;DHT22;57543;45.442;9.212;2024-02-04T15:01:08;16.11;61.32
70170;DHT22;57543;45.442;9.212;2024-02-04T15:04:12;16.24;61.13
70170;DHT22;57543;45.442;9.212;2024-02-04T15:07:16;16.21;61.17
70170;DHT22;57543;45.442;9.212;2024-02-04T15:10:23;16.18;61.40
70170;DHT22;57543;45.442;9.212;2024-02-04T15:13:29;16.15;61.69
70170;DHT22;57543;45.442;9.212;2024-02-04T15:16:34;16.14;61.88
70170;DHT22;57543;45.442;9.212;2024-02-04T15:19:42;16.11;62.06
70170;DHT22;57543;45.442;9.212;2024-02-04T15:22:46;16.07;62.20
70170;DHT22;57543;45.442;9.212;2024-02-04T15:25:50;16.04;62.34
70170;DHT22;57543;45.442;9.212;2024-02-04T15:28:56;15.96;62.63
70170;DHT22;57543;45.442;9.212;2024-02-04T15:32:00;15.89;62.84
70170;DHT22;57543;45.442;9.212;2024-02-04T15:35:04;15.48;64.23
70170;DHT22;57543;45.442;9.212;2024-02-04T15:38:09;15.55;64.24
70170;DHT22;57543;45.442;9.212;2024-02-04T15:41:15;15.53;64.07
70170;DHT22;57543;45.442;9.212;2024-02-04T15:44:19;15.52;64.10
70170;DHT22;57543;45.442;9.212;2024-02-04T15:47:26;15.46;64.18
70170;DHT22;57543;45.442;9.212;2024-02-04T15:50:31;15.39;64.54
70170;DHT22;57543;45.442;9.212;2024-02-04T15:53:35;15.35;64.56
70170;DHT22;57543;45.442;9.212;2024-02-04T15:56:43;15.36;64.56
70170;DHT22;57543;45.442;9.212;2024-02-04T15:59:54;15.31;64.68
70170;DHT22;57543;45.442;9.212;2024-02-04T16:02:58;15.28;64.70
70170;DHT22;57543;45.442;9.212;2024-02-04T16:06:07;15.30;64.41
70170;DHT22;57543;45.442;9.212;2024-02-04T16:09:11;15.15;64.37
70170;DHT22;57543;45.442;9.212;2024-02-04T16:12:21;15.11;64.47
70170;DHT22;57543;45.442;9.212;2024-02-04T16:15:29;15.15;64.66
70170;DHT22;57543;45.442;9.212;2024-02-04T16:18:33;15.12;64.79
70170;DHT22;57543;45.442;9.212;2024-02-04T16:21:38;15.07;64.80
70170;DHT22;57543;45.442;9.212;2024-02-04T16:24:42;14.63;65.94
70170;DHT22;57543;45.442;9.212;2024-02-04T16:27:46;14.59;66.37
70170;DHT22;57543;45.442;9.212;2024-02-04T16:30:50;14.36;66.82
70170;DHT22;57543;45.442;9.212;2024-02-04T16:33:53;14.45;66.72
70170;DHT22;57543;45.442;9.212;2024-02-04T16:36:59;14.43;66.39
70170;DHT22;57543;45.442;9.212;2024-02-04T16:40:04;14.22;66.42
70170;DHT22;57543;45.442;9.212;2024-02-04T16:43:08;14.28;66.20
70170;DHT22;57543;45.442;9.212;2024-02-04T16:46:12;14.36;65.92
70170;DHT22;57543;45.442;9.212;2024-02-04T16:49:16;14.15;66.11
70170;DHT22;57543;45.442;9.212;2024-02-04T16:52:20;14.25;65.57
70170;DHT22;57543;45.442;9.212;2024-02-04T16:55:26;14.18;65.73
70170;DHT22;57543;45.442;9.212;2024-02-04T16:58:30;14.17;65.61
70170;DHT22;57543;45.442;9.212;2024-02-04T17:01:34;14.18;65.56
70170;DHT22;57543;45.442;9.212;2024-02-04T17:04:41;14.21;65.77
70170;DHT22;57543;45.442;9.212;2024-02-04T17:07:49;14.18;66.02
70170;DHT22;57543;45.442;9.212;2024-02-04T17:10:54;14.21;66.11
70170;DHT22;57543;45.442;9.212;2024-02-04T17:13:59;14.18;65.95
70170;DHT22;57543;45.442;9.212;2024-02-04T17:17:13;14.13;65.87
70170;DHT22;57543;45.442;9.212;2024-02-04T17:20:22;14.07;66.17
70170;DHT22;57543;45.442;9.212;2024-02-04T17:23:35;14.06;66.34
70170;DHT22;57543;45.442;9.212;2024-02-04T17:26:41;14.03;66.32
70170;DHT22;57543;45.442;9.212;2024-02-04T17:29:45;14.03;66.20
70170;DHT22;57543;45.442;9.212;2024-02-04T17:32:50;14.00;66.20
70170;DHT22;57543;45.442;9.212;2024-02-04T17:35:55;13.90;66.46
70170;DHT22;57543;45.442;9.212;2024-02-04T17:38:59;13.90;66.40
70170;DHT22;57543;45.442;9.212;2024-02-04T17:42:11;13.94;66.24
70170;DHT22;57543;45.442;9.212;2024-02-04T17:45:15;13.98;65.86
70170;DHT22;57543;45.442;9.212;2024-02-04T17:48:19;13.97;65.89
70170;DHT22;57543;45.442;9.212;2024-02-04T17:51:23;13.93;66.12
70170;DHT22;57543;45.442;9.212;2024-02-04T17:54:26;13.87;66.28
70170;DHT22;57543;45.442;9.212;2024-02-04T17:57:33;13.77;66.49
70170;DHT22;57543;45.442;9.212;2024-02-04T18:00:38;13.74;66.65
70170;DHT22;57543;45.442;9.212;2024-02-04T18:03:44;13.70;66.69
70170;DHT22;57543;45.442;9.212;2024-02-04T18:06:48;13.69;66.78
70170;DHT22;57543;45.442;9.212;2024-02-04T18:09:52;13.69;66.71
70170;DHT22;57543;45.442;9.212;2024-02-04T18:12:59;13.66;66.67
70170;DHT22;57543;45.442;9.212;2024-02-04T18:16:05;13.52;67.26
70170;DHT22;57543;45.442;9.212;2024-02-04T18:19:09;13.55;67.16
70170;DHT22;57543;45.442;9.212;2024-02-04T18:22:13;13.65;66.83
70170;DHT22;57543;45.442;9.212;2024-02-04T18:25:17;13.73;66.55
70170;DHT22;57543;45.442;9.212;2024-02-04T18:28:20;13.48;67.09
70170;DHT22;57543;45.442;9.212;2024-02-04T18:31:25;13.46;67.02
70170;DHT22;57543;45.442;9.212;2024-02-04T18:34:28;13.39;67.53
70170;DHT22;57543;45.442;9.212;2024-02-04T18:37:32;13.31;67.75
70170;DHT22;57543;45.442;9.212;2024-02-04T18:40:36;13.31;67.86
70170;DHT22;57543;45.442;9.212;2024-02-04T18:43:39;13.25;68.13
70170;DHT22;57543;45.442;9.212;2024-02-04T18:46:45;13.22;68.34
70170;DHT22;57543;45.442;9.212;2024-02-04T18:49:51;13.25;68.35
70170;DHT22;57543;45.442;9.212;2024-02-04T18:52:58;13.22;68.26
70170;DHT22;57543;45.442;9.212;2024-02-04T18:56:04;13.25;67.97
70170;DHT22;57543;45.442;9.212;2024-02-04T18:59:08;13.14;68.23
70170;DHT22;57543;45.442;9.212;2024-02-04T19:02:11;13.14;68.45
70170;DHT22;57543;45.442;9.212;2024-02-04T19:05:15;13.15;68.50
70170;DHT22;57543;45.442;9.212;2024-02-04T19:08:18;13.28;68.28
70170;DHT22;57543;45.442;9.212;2024-02-04T19:11:22;13.31;68.02
70170;DHT22;57543;45.442;9.212;2024-02-04T19:14:26;13.28;68.02
70170;DHT22;57543;45.442;9.212;2024-02-04T19:17:29;13.25;68.28
70170;DHT22;57543;45.442;9.212;2024-02-04T19:20:34;13.25;68.56
70170;DHT22;57543;45.442;9.212;2024-02-04T19:23:38;13.27;68.35
70170;DHT22;57543;45.442;9.212;2024-02-04T19:26:41;13.31;68.19
70170;DHT22;57543;45.442;9.212;2024-02-04T19:29:45;13.25;67.92
70170;DHT22;57543;45.442;9.212;2024-02-04T19:32:50;13.22;68.12
70170;DHT22;57543;45.442;9.212;2024-02-04T19:35:54;13.25;68.26
70170;DHT22;57543;45.442;9.212;2024-02-04T19:38:57;13.21;68.31
70170;DHT22;57543;45.442;9.212;2024-02-04T19:42:00;13.14;68.42